createdAt,value
2018-11-22T12:15:53.714Z,95810.00
2018-11-22T12:16:31.259Z,95806.00
2018-11-22T12:17:08.979Z,95807.00
2018-11-22T12:17:46.564Z,95808.00
2018-11-22T12:18:24.206Z,95804.00
2018-11-22T12:19:01.673Z,95802.00
2018-11-22T12:19:39.267Z,95807.00
2018-11-22T12:20:16.886Z,95806.00
2018-11-22T12:20:54.574Z,95805.00
2018-11-22T12:21:32.202Z,95804.00
2018-11-22T12:22:09.759Z,95806.00
2018-11-22T12:22:47.268Z,95807.00
2018-11-22T12:23:25.068Z,95806.00
2018-11-22T12:24:02.521Z,95806.00
2018-11-22T12:24:40.156Z,95810.00
2018-11-22T12:25:17.818Z,95803.00
2018-11-22T12:25:55.286Z,95806.00
2018-11-22T12:26:32.937Z,95802.00
2018-11-22T12:27:10.405Z,95803.00
2018-11-22T12:27:48.066Z,95803.00
2018-11-22T12:28:25.686Z,95803.00
2018-11-22T12:29:03.297Z,95800.00
2018-11-22T12:29:40.816Z,95805.00
2018-11-22T12:30:18.763Z,95801.00
2018-11-22T12:30:56.395Z,95806.00
2018-11-22T12:31:34.005Z,95806.00
2018-11-22T12:32:11.598Z,95806.00
2018-11-22T12:32:49.212Z,95801.00
2018-11-22T12:33:26.754Z,95810.00
2018-11-22T12:34:04.457Z,95808.00
2018-11-22T12:34:42.481Z,95805.00
2018-11-22T12:35:20.070Z,95810.00
2018-11-22T12:35:57.644Z,95804.00
2018-11-22T12:36:35.266Z,95807.00
2018-11-22T12:37:12.905Z,95805.00
2018-11-22T12:37:50.563Z,95804.00
2018-11-22T12:38:28.009Z,95803.00
2018-11-22T12:39:05.693Z,95804.00
2018-11-22T12:39:43.348Z,95799.00
2018-11-22T12:40:20.839Z,95802.00
2018-11-22T12:40:58.602Z,95800.00
2018-11-22T12:41:36.352Z,95799.00
2018-11-22T12:42:14.024Z,95801.00
2018-11-22T12:42:51.899Z,95800.00
2018-11-22T12:43:29.456Z,95798.00
2018-11-22T12:44:07.252Z,95799.00
2018-11-22T12:44:44.906Z,95800.00
2018-11-22T12:45:22.513Z,95798.00
2018-11-22T12:46:00.114Z,95799.00
2018-11-22T12:46:37.756Z,95800.00
2018-11-22T12:47:15.283Z,95799.00
2018-11-22T12:47:52.880Z,95801.00
2018-11-22T12:48:30.566Z,95798.00
2018-11-22T12:49:08.426Z,95800.00
2018-11-22T12:49:46.169Z,95793.00
2018-11-22T12:50:23.823Z,95800.00
2018-11-22T12:51:01.289Z,95793.00
2018-11-22T12:51:38.994Z,95797.00
2018-11-22T12:52:16.842Z,95794.00
2018-11-22T12:52:54.413Z,95793.00
2018-11-22T12:53:32.140Z,95791.00
2018-11-22T12:54:09.718Z,95796.00
2018-11-22T12:54:47.642Z,95792.00
2018-11-22T12:55:25.312Z,95799.00
2018-11-22T12:56:02.862Z,95793.00
2018-11-22T12:56:40.458Z,95792.00
2018-11-22T12:57:18.044Z,95791.00
2018-11-22T12:57:55.563Z,95788.00
2018-11-22T12:58:33.170Z,95786.00
2018-11-22T12:59:11.018Z,95789.00
2018-11-22T12:59:48.651Z,95790.00
2018-11-22T13:00:26.220Z,95791.00
2018-11-22T13:01:03.839Z,95790.00
2018-11-22T13:01:41.649Z,95788.00
2018-11-22T13:02:19.046Z,95788.00
2018-11-22T13:02:56.542Z,95787.00
2018-11-22T13:03:34.360Z,95789.00
2018-11-22T13:04:12.259Z,95789.00
2018-11-22T13:04:49.832Z,95786.00
2018-11-22T13:05:27.395Z,95787.00
2018-11-22T13:06:04.840Z,95789.00
2018-11-22T13:06:42.506Z,95789.00
2018-11-22T13:07:20.132Z,95787.00
2018-11-22T13:07:57.801Z,95787.00
2018-11-22T13:08:35.506Z,95787.00
2018-11-22T13:09:13.255Z,95789.00
2018-11-22T13:09:50.882Z,95786.00
2018-11-22T13:10:28.318Z,95790.00
2018-11-22T13:11:05.861Z,95786.00
2018-11-22T13:11:47.643Z,95792.00
2018-11-22T13:12:21.249Z,95789.00
2018-11-22T13:12:58.741Z,95791.00
2018-11-22T13:13:36.326Z,95797.00
2018-11-22T13:14:14.183Z,95791.00
2018-11-22T13:14:51.987Z,95795.00
2018-11-22T13:15:29.531Z,95795.00
2018-11-22T13:16:07.246Z,95796.00
2018-11-22T13:16:45.106Z,95795.00
2018-11-22T13:17:22.722Z,95793.00
2018-11-22T13:18:00.403Z,95795.00
2018-11-22T13:18:37.893Z,95794.00
2018-11-22T13:19:15.457Z,95793.00
2018-11-22T13:19:53.064Z,95800.00
2018-11-22T13:20:30.625Z,95795.00
2018-11-22T13:21:08.269Z,95796.00
2018-11-22T13:21:45.819Z,95801.00
2018-11-22T13:22:23.359Z,95796.00
2018-11-22T13:23:01.032Z,95799.00
2018-11-22T13:23:38.564Z,95796.00
2018-11-22T13:24:16.141Z,95795.00
2018-11-22T13:24:53.664Z,95794.00
2018-11-22T13:25:31.274Z,95797.00
2018-11-22T13:26:08.700Z,95794.00
2018-11-22T13:26:46.108Z,95791.00
2018-11-22T13:27:23.725Z,95791.00
2018-11-22T13:28:01.499Z,95794.00
2018-11-22T13:28:38.969Z,95796.00
2018-11-22T13:29:16.659Z,95795.00
2018-11-22T13:29:54.381Z,95796.00
2018-11-22T13:30:32.177Z,95801.00
2018-11-22T13:31:09.857Z,95799.00
2018-11-22T13:31:47.239Z,95800.00
2018-11-22T13:32:24.871Z,95798.00
2018-11-22T13:33:02.403Z,95796.00
2018-11-22T13:33:40.094Z,95799.00
2018-11-22T13:34:17.615Z,95798.00
2018-11-22T13:34:55.343Z,95798.00
2018-11-22T13:35:32.878Z,95801.00
2018-11-22T13:36:10.573Z,95800.00
2018-11-22T13:36:48.280Z,95802.00
2018-11-22T13:37:25.772Z,95799.00
2018-11-22T13:38:03.344Z,95800.00
2018-11-22T13:38:40.959Z,95796.00
2018-11-22T13:39:18.538Z,95800.00
2018-11-22T13:39:56.140Z,95799.00
2018-11-22T13:40:33.778Z,95806.00
2018-11-22T13:41:11.219Z,95804.00
2018-11-22T13:41:48.769Z,95806.00
2018-11-22T13:42:26.385Z,95805.00
2018-11-22T13:43:03.984Z,95810.00
2018-11-22T13:43:41.564Z,95810.00
2018-11-22T13:44:19.135Z,95807.00
2018-11-22T13:44:56.805Z,95808.00
2018-11-22T13:45:34.560Z,95808.00
2018-11-22T13:46:12.211Z,95811.00
2018-11-22T13:46:49.762Z,95809.00
2018-11-22T13:47:27.216Z,95804.00
2018-11-22T13:48:05.754Z,95804.00
2018-11-22T13:48:42.715Z,95812.00
2018-11-22T13:49:20.350Z,95808.00
2018-11-22T13:49:58.038Z,95807.00
2018-11-22T13:50:41.905Z,95801.00
2018-11-22T13:51:13.355Z,95808.00
2018-11-22T13:51:50.807Z,95810.00
2018-11-22T13:52:28.313Z,95806.00
2018-11-22T13:53:05.872Z,95812.00
2018-11-22T13:53:43.622Z,95813.00
2018-11-22T13:54:21.183Z,95809.00
2018-11-22T13:54:58.951Z,95809.00
2018-11-22T13:55:36.627Z,95812.00
2018-11-22T13:56:14.196Z,95813.00
2018-11-22T13:56:51.794Z,95817.00
2018-11-22T13:57:29.526Z,95817.00
2018-11-22T13:58:06.973Z,95820.00
2018-11-22T13:58:44.567Z,95818.00
2018-11-22T13:59:22.198Z,95817.00
2018-11-22T13:59:59.848Z,95820.00
2018-11-22T14:00:37.385Z,95818.00
2018-11-22T14:01:15.026Z,95818.00
2018-11-22T14:01:52.607Z,95821.00
2018-11-22T14:02:30.143Z,95816.00
2018-11-22T14:03:08.242Z,95820.00
2018-11-22T14:03:45.906Z,95819.00
2018-11-22T14:04:23.537Z,95817.00
2018-11-22T14:05:01.088Z,95818.00
2018-11-22T14:05:38.643Z,95823.00
2018-11-22T14:06:16.450Z,95821.00
2018-11-22T14:06:54.048Z,95821.00
2018-11-22T14:07:31.641Z,95817.00
2018-11-22T14:08:09.303Z,95819.00
2018-11-22T14:08:46.843Z,95818.00
2018-11-22T14:09:24.425Z,95820.00
2018-11-22T14:10:01.816Z,95819.00
2018-11-22T14:10:39.434Z,95819.00
2018-11-22T14:11:16.936Z,95821.00
2018-11-22T14:11:54.815Z,95820.00
2018-11-22T14:12:32.598Z,95821.00
2018-11-22T14:13:10.026Z,95816.00
2018-11-22T14:13:47.625Z,95820.00
2018-11-22T14:14:25.225Z,95821.00
2018-11-22T14:15:02.811Z,95822.00
2018-11-22T14:15:40.365Z,95818.00
2018-11-22T14:16:18.091Z,95818.00
2018-11-22T14:16:56.543Z,95816.00
2018-11-22T14:17:33.557Z,95822.00
2018-11-22T14:18:11.074Z,95818.00
2018-11-22T14:18:48.566Z,95821.00
2018-11-22T14:19:26.334Z,95824.00
2018-11-22T14:20:03.972Z,95821.00
2018-11-22T14:20:41.464Z,95825.00
2018-11-22T14:21:19.048Z,95824.00
2018-11-22T14:21:56.631Z,95825.00
2018-11-22T14:22:34.487Z,95825.00
2018-11-22T14:23:12.047Z,95826.00
2018-11-22T14:23:49.569Z,95830.00
2018-11-22T14:24:27.298Z,95830.00
2018-11-22T14:25:05.017Z,95830.00
2018-11-22T14:25:45.076Z,95830.00
2018-11-22T14:26:20.213Z,95827.00
2018-11-22T14:26:57.778Z,95826.00
2018-11-22T14:27:35.354Z,95826.00
2018-11-22T14:28:13.161Z,95829.00
2018-11-22T14:28:50.977Z,95828.00
2018-11-22T14:29:28.766Z,95830.00
2018-11-22T14:30:06.174Z,95834.00
2018-11-22T14:30:43.934Z,95832.00
2018-11-22T14:31:21.713Z,95837.00
2018-11-22T14:31:59.252Z,95834.00
2018-11-22T14:32:36.786Z,95839.00
2018-11-22T14:33:14.422Z,95830.00
2018-11-22T14:33:52.117Z,95835.00
2018-11-22T14:34:29.872Z,95837.00
2018-11-22T14:35:07.377Z,95832.00
2018-11-22T14:35:44.992Z,95832.00
2018-11-22T14:36:22.783Z,95832.00
2018-11-22T14:37:00.470Z,95833.00
2018-11-22T14:37:38.039Z,95834.00
2018-11-22T14:38:15.650Z,95834.00
2018-11-22T14:38:53.223Z,95836.00
2018-11-22T14:39:30.803Z,95838.00
2018-11-22T14:40:08.364Z,95834.00
2018-11-22T14:40:46.037Z,95836.00
2018-11-22T14:41:23.652Z,95840.00
2018-11-22T14:42:01.321Z,95837.00
2018-11-22T14:42:39.111Z,95836.00
2018-11-22T14:43:16.814Z,95839.00
2018-11-22T14:43:54.445Z,95840.00
2018-11-22T14:44:32.044Z,95838.00
2018-11-22T14:45:09.611Z,95840.00
2018-11-22T14:45:47.279Z,95842.00
2018-11-22T14:46:24.690Z,95839.00
2018-11-22T14:47:02.273Z,95840.00
2018-11-22T14:47:39.776Z,95836.00
2018-11-22T14:48:17.600Z,95837.00
2018-11-22T14:48:55.035Z,95837.00
2018-11-22T14:49:32.548Z,95833.00
2018-11-22T14:50:10.220Z,95838.00
2018-11-22T14:50:47.890Z,95840.00
2018-11-22T14:51:25.385Z,95841.00
2018-11-22T14:52:02.925Z,95840.00
2018-11-22T14:52:40.440Z,95845.00
2018-11-22T14:53:18.189Z,95842.00
2018-11-22T14:53:55.980Z,95845.00
2018-11-22T14:54:33.672Z,95845.00
2018-11-22T14:55:11.191Z,95846.00
2018-11-22T14:55:49.099Z,95847.00
2018-11-22T14:56:26.774Z,95848.00
2018-11-22T14:57:04.431Z,95843.00
2018-11-22T14:57:41.918Z,95846.00
2018-11-22T14:58:19.603Z,95847.00
2018-11-22T14:58:57.055Z,95841.00
2018-11-22T14:59:34.513Z,95845.00
2018-11-22T15:00:12.167Z,95846.00
2018-11-22T15:00:49.681Z,95848.00
2018-11-22T15:01:27.325Z,95849.00
2018-11-22T15:02:04.835Z,95844.00
2018-11-22T15:02:42.589Z,95846.00
2018-11-22T15:03:20.090Z,95844.00
2018-11-22T15:03:57.612Z,95845.00
2018-11-22T15:04:35.267Z,95845.00
2018-11-22T15:05:12.805Z,95844.00
2018-11-22T15:05:50.745Z,95847.00
2018-11-22T15:06:28.154Z,95844.00
2018-11-22T15:07:05.754Z,95844.00
2018-11-22T15:07:43.474Z,95847.00
2018-11-22T15:08:21.361Z,95848.00
2018-11-22T15:08:58.755Z,95849.00
2018-11-22T15:09:36.230Z,95847.00
2018-11-22T15:10:13.871Z,95851.00
2018-11-22T15:10:51.652Z,95844.00
2018-11-22T15:11:29.200Z,95848.00
2018-11-22T15:12:06.849Z,95845.00
2018-11-22T15:12:44.290Z,95846.00
2018-11-22T15:13:21.983Z,95848.00
2018-11-22T15:13:59.705Z,95848.00
2018-11-22T15:14:37.337Z,95854.00
2018-11-22T15:15:14.908Z,95852.00
2018-11-22T15:15:52.513Z,95852.00
2018-11-22T15:16:30.297Z,95852.00
2018-11-22T15:17:07.694Z,95848.00
2018-11-22T15:17:45.202Z,95852.00
2018-11-22T15:18:22.959Z,95855.00
2018-11-22T15:19:00.483Z,95853.00
2018-11-22T15:19:38.198Z,95854.00
2018-11-22T15:20:15.896Z,95849.00
2018-11-22T15:20:53.664Z,95852.00
2018-11-22T15:21:31.285Z,95849.00
2018-11-22T15:22:08.767Z,95854.00
2018-11-22T15:22:46.191Z,95849.00
2018-11-22T15:23:23.788Z,95855.00
2018-11-22T15:24:01.251Z,95849.00
2018-11-22T15:24:38.886Z,95855.00
2018-11-22T15:25:16.295Z,95853.00
2018-11-22T15:25:53.924Z,95846.00
2018-11-22T15:26:31.647Z,95846.00
2018-11-22T15:27:09.311Z,95847.00
2018-11-22T15:27:47.101Z,95848.00
2018-11-22T15:28:24.671Z,95848.00
2018-11-22T15:29:02.330Z,95845.00
2018-11-22T15:29:39.798Z,95848.00
2018-11-22T15:30:17.494Z,95849.00
2018-11-22T15:30:55.274Z,95849.00
2018-11-22T15:31:32.997Z,95855.00
2018-11-22T15:32:10.661Z,95853.00
2018-11-22T15:32:48.121Z,95858.00
2018-11-22T15:33:25.774Z,95866.00
2018-11-22T15:34:03.256Z,95863.00
2018-11-22T15:34:40.739Z,95860.00
2018-11-22T15:35:18.332Z,95863.00
2018-11-22T15:35:56.033Z,95862.00
2018-11-22T15:36:33.666Z,95859.00
2018-11-22T15:37:11.228Z,95863.00
2018-11-22T15:37:48.836Z,95867.00
2018-11-22T15:38:26.429Z,95862.00
2018-11-22T15:39:04.251Z,95858.00
2018-11-22T15:39:42.036Z,95856.00
2018-11-22T15:40:19.571Z,95859.00
2018-11-22T15:40:57.222Z,95862.00
2018-11-22T15:41:35.141Z,95860.00
2018-11-22T15:42:12.771Z,95862.00
2018-11-22T15:42:50.386Z,95862.00
2018-11-22T15:43:27.874Z,95866.00
2018-11-22T15:44:05.376Z,95866.00
2018-11-22T15:44:42.873Z,95865.00
2018-11-22T15:45:20.451Z,95861.00
2018-11-22T15:45:58.390Z,95865.00
2018-11-22T15:46:35.934Z,95865.00
2018-11-22T15:47:13.626Z,95865.00
2018-11-22T15:47:51.305Z,95865.00
2018-11-22T15:48:28.805Z,95864.00
2018-11-22T15:49:06.715Z,95865.00
2018-11-22T15:49:44.391Z,95868.00
2018-11-22T15:50:21.904Z,95872.00
2018-11-22T15:50:59.612Z,95869.00
2018-11-22T15:51:37.275Z,95870.00
2018-11-22T15:52:14.886Z,95870.00
2018-11-22T15:52:52.500Z,95871.00
2018-11-22T15:53:29.977Z,95874.00
2018-11-22T15:54:07.451Z,95875.00
2018-11-22T15:54:45.107Z,95879.00
2018-11-22T15:55:22.928Z,95875.00
2018-11-22T15:56:00.672Z,95877.00
2018-11-22T15:56:38.106Z,95877.00
2018-11-22T15:57:15.818Z,95883.00
2018-11-22T15:57:53.627Z,95883.00
2018-11-22T15:58:31.359Z,95877.00
2018-11-22T15:59:09.039Z,95885.00
2018-11-22T15:59:46.534Z,95888.00
2018-11-22T16:00:24.258Z,95881.00
2018-11-22T16:01:02.456Z,95891.00
2018-11-22T16:01:40.661Z,95885.00
2018-11-22T16:02:18.178Z,95884.00
2018-11-22T16:02:55.766Z,95891.00
2018-11-22T16:03:33.501Z,95884.00
2018-11-22T16:04:11.794Z,95887.00
2018-11-22T16:04:49.420Z,95886.00
2018-11-22T16:05:26.923Z,95886.00
2018-11-22T16:06:04.451Z,95885.00
2018-11-22T16:06:42.407Z,95885.00
2018-11-22T16:07:20.042Z,95890.00
2018-11-22T16:07:57.944Z,95890.00
2018-11-22T16:08:35.659Z,95891.00
2018-11-22T16:09:13.191Z,95887.00
2018-11-22T16:09:50.793Z,95889.00
2018-11-22T16:10:28.488Z,95894.00
2018-11-22T16:11:05.943Z,95891.00
2018-11-22T16:11:43.483Z,95892.00
2018-11-22T16:12:20.894Z,95890.00
2018-11-22T16:12:58.530Z,95889.00
2018-11-22T16:13:36.122Z,95889.00
2018-11-22T16:14:13.789Z,95891.00
2018-11-22T16:14:51.397Z,95889.00
2018-11-22T16:15:29.035Z,95889.00
2018-11-22T16:16:06.850Z,95893.00
2018-11-22T16:16:44.596Z,95894.00
2018-11-22T16:17:22.321Z,95897.00
2018-11-22T16:18:00.018Z,95890.00
2018-11-22T16:18:37.681Z,95895.00
2018-11-22T16:19:15.239Z,95892.00
2018-11-22T16:19:52.811Z,95895.00
2018-11-22T16:20:30.471Z,95894.00
2018-11-22T16:21:08.397Z,95896.00
2018-11-22T16:21:46.275Z,95896.00
2018-11-22T16:22:23.803Z,95897.00
2018-11-22T16:23:01.250Z,95898.00
2018-11-22T16:23:38.764Z,95899.00
2018-11-22T16:24:16.371Z,95897.00
2018-11-22T16:24:53.867Z,95900.00
2018-11-22T16:25:31.662Z,95901.00
2018-11-22T16:26:09.205Z,95898.00
2018-11-22T16:26:47.780Z,95901.00
2018-11-22T16:27:25.383Z,95902.00
2018-11-22T16:28:03.216Z,95897.00
2018-11-22T16:28:40.899Z,95899.00
2018-11-22T16:29:18.683Z,95900.00
2018-11-22T16:29:56.286Z,95893.00
2018-11-22T16:30:33.794Z,95897.00
2018-11-22T16:31:11.443Z,95900.00
2018-11-22T16:31:49.043Z,95895.00
2018-11-22T16:32:26.622Z,95894.00
2018-11-22T16:33:04.098Z,95895.00
2018-11-22T16:33:41.532Z,95894.00
2018-11-22T16:34:19.131Z,95893.00
2018-11-22T16:34:56.679Z,95896.00
2018-11-22T16:35:34.227Z,95887.00
2018-11-22T16:36:11.735Z,95889.00
2018-11-22T16:36:49.384Z,95890.00
2018-11-22T16:37:27.178Z,95889.00
2018-11-22T16:38:04.670Z,95888.00
2018-11-22T16:38:42.449Z,95888.00
2018-11-22T16:39:19.996Z,95890.00
2018-11-22T16:39:57.453Z,95886.00
2018-11-22T16:40:35.090Z,95886.00
2018-11-22T16:41:12.831Z,95886.00
2018-11-22T16:41:50.379Z,95883.00
2018-11-22T16:42:27.938Z,95883.00
2018-11-22T16:43:05.679Z,95883.00
2018-11-22T16:43:43.059Z,95887.00
2018-11-22T16:44:20.579Z,95889.00
2018-11-22T16:44:58.246Z,95883.00
2018-11-22T16:45:35.648Z,95888.00
2018-11-22T16:46:13.307Z,95890.00
2018-11-22T16:46:50.941Z,95890.00
2018-11-22T16:47:28.451Z,95890.00
2018-11-22T16:48:06.118Z,95892.00
2018-11-22T16:48:43.848Z,95891.00
2018-11-22T16:49:21.362Z,95892.00
2018-11-22T16:49:58.888Z,95894.00
2018-11-22T16:50:36.531Z,95893.00
2018-11-22T16:51:14.163Z,95894.00
2018-11-22T16:51:51.878Z,95892.00
2018-11-22T16:52:29.378Z,95897.00
2018-11-22T16:53:06.943Z,95897.00
2018-11-22T16:53:44.503Z,95895.00
2018-11-22T16:54:22.236Z,95895.00
2018-11-22T16:54:59.947Z,95894.00
2018-11-22T16:55:37.708Z,95896.00
2018-11-22T16:56:15.427Z,95894.00
2018-11-22T16:56:53.111Z,95891.00
2018-11-22T16:57:30.663Z,95895.00
2018-11-22T16:58:08.243Z,95894.00
2018-11-22T16:58:45.904Z,95894.00
2018-11-22T16:59:25.152Z,95897.00
2018-11-22T17:00:02.724Z,95896.00
2018-11-22T17:00:40.137Z,95895.00
2018-11-22T17:01:17.806Z,95899.00
2018-11-22T17:01:55.382Z,95892.00
2018-11-22T17:02:32.886Z,95894.00
2018-11-22T17:03:10.595Z,95899.00
2018-11-22T17:03:48.007Z,95893.00
2018-11-22T17:04:25.570Z,95890.00
2018-11-22T17:05:03.281Z,95886.00
2018-11-22T17:05:40.992Z,95894.00
2018-11-22T17:06:18.600Z,95897.00
2018-11-22T17:06:56.253Z,95902.00
2018-11-22T17:07:33.727Z,95906.00
2018-11-22T17:08:11.338Z,95905.00
2018-11-22T17:08:48.894Z,95910.00
2018-11-22T17:09:26.360Z,95913.00
2018-11-22T17:10:03.962Z,95915.00
2018-11-22T17:10:41.516Z,95915.00
2018-11-22T17:11:19.140Z,95917.00
2018-11-22T17:11:56.722Z,95918.00
2018-11-22T17:12:34.312Z,95919.00
2018-11-22T17:13:11.921Z,95925.00
2018-11-22T17:13:49.589Z,95928.00
2018-11-22T17:14:27.164Z,95923.00
2018-11-22T17:15:04.810Z,95928.00
2018-11-22T17:15:42.320Z,95925.00
2018-11-22T17:16:19.913Z,95933.00
2018-11-22T17:16:57.587Z,95935.00
2018-11-22T17:17:35.187Z,95931.00
2018-11-22T17:18:12.900Z,95930.00
2018-11-22T17:18:50.497Z,95936.00
2018-11-22T17:19:28.456Z,95931.00
2018-11-22T17:20:07.207Z,95932.00
2018-11-22T17:20:45.356Z,95932.00
2018-11-22T17:21:24.583Z,95931.00
2018-11-22T17:22:03.032Z,95928.00
2018-11-22T17:22:41.211Z,95930.00
2018-11-22T17:23:18.736Z,95926.00
2018-11-22T17:23:56.374Z,95925.00
2018-11-22T17:24:34.199Z,95927.00
2018-11-22T17:25:11.481Z,95929.00
2018-11-22T17:25:49.290Z,95929.00
2018-11-22T17:26:26.635Z,95926.00
2018-11-22T17:27:04.418Z,95930.00
2018-11-22T17:27:42.079Z,95932.00
2018-11-22T17:28:19.563Z,95934.00
2018-11-22T17:28:57.238Z,95931.00
2018-11-22T17:29:34.908Z,95931.00
2018-11-22T17:30:12.452Z,95928.00
2018-11-22T17:30:50.290Z,95932.00
2018-11-22T17:31:28.052Z,95932.00
2018-11-22T17:32:05.600Z,95937.00
2018-11-22T17:32:43.172Z,95935.00
2018-11-22T17:33:20.880Z,95940.00
2018-11-22T17:33:58.509Z,95937.00
2018-11-22T17:34:36.243Z,95940.00
2018-11-22T17:35:14.059Z,95938.00
2018-11-22T17:35:51.919Z,95943.00
2018-11-22T17:36:29.542Z,95936.00
2018-11-22T17:37:07.028Z,95936.00
2018-11-22T17:37:44.639Z,95939.00
2018-11-22T17:38:22.088Z,95939.00
2018-11-22T17:38:59.863Z,95948.00
2018-11-22T17:39:37.652Z,95945.00
2018-11-22T17:40:15.239Z,95934.00
2018-11-22T17:40:53.084Z,95934.00
2018-11-22T17:41:30.367Z,95935.00
2018-11-22T17:42:07.924Z,95922.00
2018-11-22T17:42:45.463Z,95921.00
2018-11-22T17:43:23.122Z,95920.00
2018-11-22T17:44:00.664Z,95918.00
2018-11-22T17:44:38.423Z,95920.00
2018-11-22T17:45:15.970Z,95913.00
2018-11-22T17:45:53.642Z,95916.00
2018-11-22T17:46:31.056Z,95912.00
2018-11-22T17:47:08.540Z,95913.00
2018-11-22T17:47:46.000Z,95915.00
2018-11-22T17:48:23.890Z,95914.00
2018-11-22T17:49:01.576Z,95916.00
2018-11-22T17:49:39.110Z,95916.00
2018-11-22T17:50:16.597Z,95916.00
2018-11-22T17:50:54.111Z,95910.00
2018-11-22T17:51:31.818Z,95909.00
2018-11-22T17:52:09.333Z,95915.00
2018-11-22T17:52:46.895Z,95908.00
2018-11-22T17:53:24.512Z,95907.00
2018-11-22T17:54:02.048Z,95908.00
2018-11-22T17:54:39.511Z,95905.00
2018-11-22T17:55:17.123Z,95908.00
2018-11-22T17:55:54.618Z,95906.00
2018-11-22T17:56:32.203Z,95911.00
2018-11-22T17:57:10.133Z,95904.00
2018-11-22T17:57:47.917Z,95902.00
2018-11-22T17:58:26.332Z,95901.00
2018-11-22T17:59:03.146Z,95905.00
2018-11-22T17:59:40.788Z,95903.00
2018-11-22T18:00:18.534Z,95907.00
2018-11-22T18:00:56.134Z,95906.00
2018-11-22T18:01:33.836Z,95908.00
2018-11-22T18:02:11.455Z,95907.00
2018-11-22T18:02:49.148Z,95912.00
2018-11-22T18:03:26.709Z,95909.00
2018-11-22T18:04:04.434Z,95914.00
2018-11-22T18:04:43.060Z,95918.00
2018-11-22T18:05:19.722Z,95915.00
2018-11-22T18:05:57.221Z,95914.00
2018-11-22T18:06:34.774Z,95915.00
2018-11-22T18:07:12.287Z,95916.00
2018-11-22T18:07:49.955Z,95913.00
2018-11-22T18:08:27.466Z,95910.00
2018-11-22T18:09:04.956Z,95912.00
2018-11-22T18:09:42.636Z,95911.00
2018-11-22T18:10:20.164Z,95914.00
2018-11-22T18:10:57.842Z,95914.00
2018-11-22T18:11:35.388Z,95917.00
2018-11-22T18:12:13.307Z,95915.00
2018-11-22T18:12:51.164Z,95909.00
2018-11-22T18:13:29.002Z,95906.00
2018-11-22T18:14:06.871Z,95909.00
2018-11-22T18:14:44.470Z,95912.00
2018-11-22T18:15:22.010Z,95907.00
2018-11-22T18:15:59.508Z,95909.00
2018-11-22T18:16:37.022Z,95908.00
2018-11-22T18:17:14.640Z,95911.00
2018-11-22T18:17:52.290Z,95907.00
2018-11-22T18:18:29.807Z,95906.00
2018-11-22T18:19:07.396Z,95911.00
2018-11-22T18:19:45.102Z,95909.00
2018-11-22T18:20:22.784Z,95908.00
2018-11-22T18:21:00.308Z,95910.00
2018-11-22T18:21:38.029Z,95908.00
2018-11-22T18:22:15.683Z,95910.00
2018-11-22T18:22:53.156Z,95908.00
2018-11-22T18:23:30.855Z,95903.00
2018-11-22T18:24:08.269Z,95906.00
2018-11-22T18:24:45.960Z,95905.00
2018-11-22T18:25:23.443Z,95906.00
2018-11-22T18:26:00.988Z,95902.00
2018-11-22T18:26:38.593Z,95898.00
2018-11-22T18:27:16.208Z,95899.00
2018-11-22T18:27:53.901Z,95899.00
2018-11-22T18:28:31.414Z,95900.00
2018-11-22T18:29:09.178Z,95899.00
2018-11-22T18:29:46.664Z,95897.00
2018-11-22T18:30:24.116Z,95900.00
2018-11-22T18:31:01.839Z,95894.00
2018-11-22T18:31:39.275Z,95895.00
2018-11-22T18:32:17.037Z,95897.00
2018-11-22T18:32:54.512Z,95893.00
2018-11-22T18:33:32.303Z,95895.00
2018-11-22T18:34:10.077Z,95894.00
2018-11-22T18:34:47.733Z,95895.00
2018-11-22T18:35:25.194Z,95891.00
2018-11-22T18:36:02.938Z,95894.00
2018-11-22T18:36:40.665Z,95896.00
2018-11-22T18:37:18.227Z,95897.00
2018-11-22T18:37:55.771Z,95898.00
2018-11-22T18:38:33.411Z,95899.00
2018-11-22T18:39:11.115Z,95900.00
2018-11-22T18:39:48.830Z,95903.00
2018-11-22T18:40:26.817Z,95897.00
2018-11-22T18:41:04.515Z,95898.00
2018-11-22T18:41:42.130Z,95904.00
2018-11-22T18:42:19.624Z,95901.00
2018-11-22T18:42:57.123Z,95905.00
2018-11-22T18:43:35.396Z,95901.00
2018-11-22T18:44:12.139Z,95905.00
2018-11-22T18:44:49.733Z,95903.00
2018-11-22T18:45:27.250Z,95905.00
2018-11-22T18:46:04.971Z,95904.00
2018-11-22T18:46:42.400Z,95903.00
2018-11-22T18:47:20.032Z,95902.00
2018-11-22T18:47:57.635Z,95905.00
2018-11-22T18:48:35.143Z,95904.00
2018-11-22T18:49:12.688Z,95906.00
2018-11-22T18:49:50.272Z,95909.00
2018-11-22T18:50:27.806Z,95906.00
2018-11-22T18:51:05.332Z,95900.00
2018-11-22T18:51:42.891Z,95903.00
2018-11-22T18:52:20.610Z,95907.00
2018-11-22T18:52:58.258Z,95907.00
2018-11-22T18:53:35.956Z,95907.00
2018-11-22T18:54:13.584Z,95903.00
2018-11-22T18:54:51.275Z,95903.00
2018-11-22T18:55:28.888Z,95906.00
2018-11-22T18:56:06.585Z,95905.00
2018-11-22T18:56:44.304Z,95903.00
2018-11-22T18:57:21.993Z,95905.00
2018-11-22T18:57:59.626Z,95903.00
2018-11-22T18:58:37.331Z,95904.00
2018-11-22T18:59:14.998Z,95905.00
2018-11-22T18:59:52.729Z,95906.00
2018-11-22T19:00:30.338Z,95909.00
2018-11-22T19:01:07.839Z,95905.00
2018-11-22T19:01:45.459Z,95904.00
2018-11-22T19:02:23.073Z,95904.00
2018-11-22T19:03:00.639Z,95903.00
2018-11-22T19:03:38.229Z,95904.00
2018-11-22T19:04:15.933Z,95902.00
2018-11-22T19:04:53.454Z,95898.00
2018-11-22T19:05:31.170Z,95899.00
2018-11-22T19:06:08.590Z,95899.00
2018-11-22T19:06:46.046Z,95899.00
2018-11-22T19:07:23.741Z,95901.00
2018-11-22T19:08:01.349Z,95904.00
2018-11-22T19:08:38.942Z,95899.00
2018-11-22T19:09:16.576Z,95899.00
2018-11-22T19:09:54.275Z,95899.00
2018-11-22T19:10:31.610Z,95899.00
2018-11-22T19:11:09.252Z,95903.00
2018-11-22T19:11:46.925Z,95903.00
2018-11-22T19:12:24.738Z,95907.00
2018-11-22T19:13:02.344Z,95902.00
2018-11-22T19:13:40.016Z,95907.00
2018-11-22T19:14:17.435Z,95908.00
2018-11-22T19:14:55.028Z,95908.00
2018-11-22T19:15:32.652Z,95903.00
2018-11-22T19:16:10.220Z,95905.00
2018-11-22T19:16:48.174Z,95906.00
2018-11-22T19:17:25.727Z,95910.00
2018-11-22T19:18:03.442Z,95915.00
2018-11-22T19:18:40.858Z,95913.00
2018-11-22T19:19:18.592Z,95916.00
2018-11-22T19:19:56.183Z,95917.00
2018-11-22T19:20:33.783Z,95919.00
2018-11-22T19:21:11.299Z,95921.00
2018-11-22T19:21:48.924Z,95911.00
2018-11-22T19:22:26.521Z,95915.00
2018-11-22T19:23:04.130Z,95916.00
2018-11-22T19:23:41.623Z,95920.00
2018-11-22T19:24:19.307Z,95920.00
2018-11-22T19:24:57.189Z,95917.00
2018-11-22T19:25:34.952Z,95920.00
2018-11-22T19:26:12.646Z,95917.00
2018-11-22T19:26:50.167Z,95919.00
2018-11-22T19:27:27.825Z,95916.00
2018-11-22T19:28:05.410Z,95918.00
2018-11-22T19:28:42.964Z,95919.00
2018-11-22T19:29:20.476Z,95916.00
2018-11-22T19:29:58.078Z,95919.00
2018-11-22T19:30:37.222Z,95918.00
2018-11-22T19:31:13.490Z,95918.00
2018-11-22T19:31:51.206Z,95921.00
2018-11-22T19:32:28.932Z,95920.00
2018-11-22T19:33:06.573Z,95923.00
2018-11-22T19:33:44.080Z,95923.00
2018-11-22T19:34:21.605Z,95923.00
2018-11-22T19:34:59.018Z,95927.00
2018-11-22T19:35:36.699Z,95926.00
2018-11-22T19:36:14.128Z,95925.00
2018-11-22T19:36:51.646Z,95923.00
2018-11-22T19:37:29.212Z,95926.00